CAT,Max TemperatureF,Mean TemperatureF,Min TemperatureF,Max Dew PointF,MeanDew PointF,Min DewpointF,Max Humidity, Mean Humidity, Min Humidity, Max Sea Level PressureIn, Mean Sea Level PressureIn, Min Sea Level PressureIn, Max VisibilityMiles, Mean VisibilityMiles, Min VisibilityMiles, Max Wind SpeedMPH, Mean Wind SpeedMPH, Max Gust SpeedMPH,PrecipitationIn, CloudCover, Events, WindDirDegrees
2012-3-1,82,72,62,64,54,46,82,51,28,30.09,30.03,29.95,6,6,6,17,9,,0.00,2,,163
2012-3-2,84,75,66,61,54,45,78,47,25,30.09,30.04,29.98,6,6,6,21,13,,0.00,3,,168
2012-3-3,86,73,60,59,52,45,88,49,23,30.09,30.01,29.89,6,6,6,15,9,,0.00,1,,172
2012-3-4,91,78,66,63,50,41,88,37,19,29.98,29.91,29.77,6,6,6,15,5,,0.00,1,,300
2012-3-5,91,76,62,61,56,50,88,50,24,30.01,29.95,29.89,6,6,6,9,4,,0.00,4,Rain-Thunderstorm,347
2012-3-6,75,72,68,63,60,57,83,65,53,30.12,30.09,30.04,6,6,6,34,12,,0.00,5,,149
2012-3-7,77,68,60,59,56,54,94,64,44,30.15,30.09,30.04,6,6,6,17,10,,0.00,5,,152
2012-3-8,82,68,55,57,53,50,94,57,32,30.12,30.06,29.98,6,6,6,12,6,,0.00,3,,129
2012-3-9,87,76,64,61,56,52,77,48,33,30.15,30.10,30.04,6,6,6,14,8,,0.00,3,,135
2012-3-10,89,74,59,61,50,45,88,38,22,30.21,30.13,30.06,6,6,6,17,5,,0.00,3,,152
2012-3-11,82,71,60,55,51,46,72,44,28,30.21,30.14,30.09,6,6,6,17,10,,0.00,2,,152
2012-3-12,87,74,60,55,49,41,77,42,22,30.15,30.10,30.04,6,6,6,14,8,,0.00,1,,148
2012-3-13,87,74,62,57,50,43,72,44,22,30.15,30.06,29.89,,,,6,3,,0.00,,,94
2012-3-14,86,73,60,57,53,48,68,48,29,30.18,30.11,30.04,6,6,6,10,4,,0.00,5,Rain-Thunderstorm,108
2012-3-15,84,73,62,63,60,55,94,67,42,30.21,30.13,30.06,6,6,6,14,8,,0.00,5,Rain-Thunderstorm,75
2012-3-16,82,73,64,64,61,59,88,77,45,30.12,30.07,30.01,6,6,6,14,5,,0.00,6,Rain-Thunderstorm,198
2012-3-17,80,70,60,66,61,59,94,72,51,30.09,30.04,29.98,6,6,6,13,5,,0.00,3,Rain-Thunderstorm,345
2012-3-18,84,72,59,63,59,52,88,61,33,30.15,30.10,30.04,6,6,6,17,5,,0.00,2,,174
2012-3-19,82,73,64,61,56,52,88,54,37,30.24,30.16,30.09,6,6,6,17,11,,0.00,3,,159
2012-3-20,80,71,62,63,59,57,88,70,47,30.24,30.18,30.12,6,6,6,18,9,,0.00,5,Rain-Thunderstorm,147
2012-3-21,78,71,64,61,58,55,83,64,44,30.24,30.16,30.09,6,6,6,17,8,,0.00,4,,137
2012-3-22,80,68,55,55,52,50,88,52,34,30.18,30.14,30.09,,,,12,5,,0.00,,,162
2012-3-23,80,68,57,55,51,46,82,51,32,30.21,30.16,30.09,6,6,6,13,5,,0.00,1,,147
2012-3-24,82,70,59,63,53,50,82,50,34,30.21,30.16,30.09,6,6,6,12,8,,0.00,1,,147
2012-3-25,78,70,62,59,55,50,78,59,36,30.24,30.19,30.12,6,6,6,23,13,,0.00,5,,149
2012-3-26,82,70,59,57,53,50,82,52,35,30.21,30.15,30.06,6,6,6,12,8,,0.00,2,,130
2012-3-27,86,74,62,55,50,41,72,45,26,30.15,30.09,30.01,,,,10,5,,0.00,,,136
2012-3-28,82,72,62,59,55,50,63,51,42,30.15,30.11,30.06,6,6,6,17,6,,0.00,6,Rain,52
2012-3-29,86,75,64,61,58,54,83,52,33,30.15,30.10,30.04,6,6,6,21,4,,0.00,5,Rain-Thunderstorm,356
2012-3-30,73,68,64,66,63,61,94,87,78,30.12,30.06,29.98,6,6,5,12,5,,0.00,6,Rain-Thunderstorm,62
2012-3-31,82,72,62,64,62,61,94,70,48,30.06,30.03,29.98,6,6,6,13,9,,0.00,6,Rain-Thunderstorm,2